Time;durP1;ratioP1;P1;durP2;ratioP2;P2;SDS_P1;SDS_P2;PMS_P1;PMS_P2;Temp;Humidity;BMP_temperature;BMP_pressure;BME280_temperature;BME280_humidity;BME280_pressure;Samples;Min_cycle;Max_cycle;Signal;HPM_P1;HPM_P2
2023/01/21 00:01:13;;;;;;;15.85;9.60;;;;;;;;;;5042157;28;20098;-69
2023/01/21 00:03:41;;;;;;;14.90;9.57;;;;;;;;;;5040065;28;20132;-68
2023/01/21 00:06:15;;;;;;;16.75;10.32;;;;;;;;;;5040979;28;20132;-68
2023/01/21 00:08:42;;;;;;;15.70;8.95;;;;;;;;;;5035663;28;20475;-69
2023/01/21 00:11:13;;;;;;;15.50;9.45;;;;;;;;;;5024056;28;20530;-69
2023/01/21 00:13:42;;;;;;;15.82;9.70;;;;;;;;;;5018049;28;20048;-69
2023/01/21 00:16:13;;;;;;;16.13;9.70;;;;;;;;;;5052763;28;20174;-69
2023/01/21 00:18:39;;;;;;;15.65;9.85;;;;;;;;;;5052212;28;20041;-68
2023/01/21 00:21:08;;;;;;;14.80;9.55;;;;;;;;;;5050509;28;20172;-68
2023/01/21 00:23:36;;;;;;;13.45;8.93;;;;;;;;;;5034686;28;20037;-68
2023/01/21 00:26:03;;;;;;;14.65;9.02;;;;;;;;;;5051047;28;20395;-68
2023/01/21 00:28:38;;;;;;;15.32;9.98;;;;;;;;;;5035611;28;20052;-69
2023/01/21 00:31:05;;;;;;;16.10;9.70;;;;;;;;;;5020061;28;20033;-70
2023/01/21 00:33:31;;;;;;;14.50;9.27;;;;;;;;;;5048615;28;20049;-70
2023/01/21 00:36:06;;;;;;;15.48;9.63;;;;;;;;;;5034683;28;20047;-69
2023/01/21 00:38:34;;;;;;;14.50;9.23;;;;;;;;;;5037421;28;20077;-69
2023/01/21 00:41:02;;;;;;;15.00;9.18;;;11.30;91.20;;;;;;5014964;28;20057;-60
2023/01/21 00:43:30;;;;;;;14.55;9.38;;;;;;;;;;5044327;28;20388;-69
2023/01/21 00:45:56;;;;;;;15.18;9.30;;;;;;;;;;5033799;28;20079;-69
2023/01/21 00:48:40;;;;;;;14.55;9.48;;;;;;;;;;5033237;28;20085;-69
2023/01/21 00:51:09;;;;;;;;;;;11.20;91.80;;;;;;5049013;28;20041;-69
2023/01/21 00:53:35;;;;;;;;;;;11.20;91.80;;;;;;5051312;28;19928;-68
2023/01/21 00:56:04;;;;;;;;;;;11.10;91.70;;;;;;5052731;28;19927;-68
2023/01/21 00:58:30;;;;;;;;;;;;;;;;;;5052415;28;19921;-69
2023/01/21 01:01:05;;;;;;;;;;;11.00;91.70;;;;;;5049947;28;19986;-68
2023/01/21 01:03:33;;;;;;;;;;;10.90;91.60;;;;;;5036177;28;19921;-68
2023/01/21 01:06:25;;;;;;;;;;;10.90;91.60;;;;;;5034495;28;19921;-68
2023/01/21 01:08:53;;;;;;;;;;;10.90;91.50;;;;;;4974501;28;19968;-68
2023/01/21 01:11:24;;;;;;;;;;;11.10;91.70;;;;;;4971712;28;19969;-69
2023/01/21 01:13:53;;;;;;;;;;;;;;;;;;4978513;28;19921;-69
2023/01/21 01:16:19;;;;;;;;;;;;;;;;;;4974003;28;19921;-69
2023/01/21 01:18:44;;;;;;;;;;;11.30;91.70;;;;;;4976433;28;19922;-69
2023/01/21 01:21:10;;;;;;;;;;;;;;;;;;4972758;28;19918;-66
2023/01/21 01:23:36;;;;;;;;;;;11.10;91.60;;;;;;4987287;28;20366;-68
2023/01/21 01:26:05;;;;;;;;;;;11.10;91.50;;;;;;4970793;28;19926;-69
2023/01/21 01:28:33;;;;;;;;;;;11.20;91.60;;;;;;4975829;28;19948;-69
2023/01/21 01:30:59;;;;;;;;;;;10.90;91.50;;;;;;4956120;28;19922;-69
2023/01/21 01:33:25;;;;;;;;;;;11.20;91.60;;;;;;4979296;28;19926;-69
2023/01/21 01:35:51;;;;;;;;;;;;;;;;;;4984248;28;20291;-67
2023/01/21 01:38:20;;;;;;;;;;;11.10;91.50;;;;;;4994209;28;19988;-69
2023/01/21 01:40:49;;;;;;;;;;;11.30;91.60;;;;;;4979127;28;19921;-69
2023/01/21 01:43:15;;;;;;;;;;;11.00;91.50;;;;;;4980073;28;19938;-69
2023/01/21 01:45:44;;;;;;;;;;;11.20;91.60;;;;;;5011076;28;19921;-69
2023/01/21 01:48:12;;;;;;;;;;;11.10;91.50;;;;;;5053627;28;19928;-68
2023/01/21 01:50:38;;;;;;;;;;;;;;;;;;5022050;28;19932;-68
2023/01/21 01:53:04;;;;;;;;;;;;;;;;;;5050656;28;20362;-65
2023/01/21 01:55:31;;;;;;;;;;;11.20;91.50;;;;;;5049561;28;19928;-69
2023/01/21 01:57:59;;;;;;;;;;;11.10;91.50;;;;;;5016925;28;20298;-67
2023/01/21 02:00:25;;;;;;;;;;;10.90;91.40;;;;;;5023182;28;19921;-69
2023/01/21 02:05:36;;;;;;;;;;;11.20;91.50;;;;;;5036527;28;20075;-71
2023/01/21 02:08:01;;;;;;;;;;;11.20;91.50;;;;;;5044849;28;20388;-71
2023/01/21 02:10:27;;;;;;;;;;;11.30;91.60;;;;;;5049339;28;19947;-71
2023/01/21 02:12:53;;;;;;;;;;;11.10;91.50;;;;;;5036389;28;19921;-71
2023/01/21 02:15:18;;;;;;;;;;;10.80;91.50;;;;;;5018847;28;20018;-71
2023/01/21 02:17:44;;;;;;;;;;;;;;;;;;5034313;28;19921;-70
2023/01/21 02:20:16;;;;;;;;;;;11.10;91.50;;;;;;5035987;28;20425;-71
2023/01/21 02:22:57;;;;;;;;;;;11.10;91.50;;;;;;5037606;28;19928;-70
2023/01/21 02:25:23;;;;;;;;;;;;;;;;;;5021932;28;19986;-71
2023/01/21 02:27:49;;;;;;;;;;;11.30;91.60;;;;;;5049399;28;19921;-69
2023/01/21 02:30:36;;;;;;;;;;;11.10;91.50;;;;;;5017752;28;19932;-71
2023/01/21 02:33:31;;;;;;;;;;;11.10;91.40;;;;;;5054892;28;19920;-69
2023/01/21 02:36:15;;;;;;;;;;;11.00;91.40;;;;;;5025096;28;19920;-69
2023/01/21 02:38:41;;;;;;;;;;;;;;;;;;5014761;28;19921;-68
2023/01/21 02:41:13;;;;;;;;;;;10.90;91.40;;;;;;5043548;28;20389;-67
2023/01/21 02:43:46;;;;;;;;;;;11.00;91.40;;;;;;5021725;28;19928;-68
2023/01/21 02:46:13;;;;;;;;;;;11.20;91.50;;;;;;5033781;28;19930;-68
2023/01/21 02:48:44;;;;;;;;;;;11.10;91.40;;;;;;5032293;28;19924;-70
2023/01/21 02:51:11;;;;;;;;;;;11.30;91.50;;;;;;5032276;28;20003;-69
2023/01/21 02:53:37;;;;;;;;;;;11.20;91.50;;;;;;5018867;28;19917;-68
2023/01/21 02:56:11;;;;;;;;;;;11.20;91.60;;;;;;5014739;28;19929;-68
2023/01/21 02:58:37;;;;;;;;;;;11.20;91.50;;;;;;5021100;28;20014;-68
2023/01/21 03:01:23;;;;;;;;;;;10.90;91.40;;;;;;5034361;28;19921;-70
2023/01/21 03:03:53;;;;;;;;;;;11.00;91.40;;;;;;5020208;28;19928;-67
2023/01/21 03:06:31;;;;;;;;;;;11.00;91.40;;;;;;5053029;28;19921;-68
2023/01/21 03:09:23;;;;;;;;;;;11.10;91.40;;;;;;5022066;28;19960;-69
2023/01/21 03:11:49;;;;;;;;;;;;;;;;;;4991634;28;20083;-67
2023/01/21 03:17:08;;;;;;;;;;;;;;;;;;4978434;28;20343;-68
2023/01/21 03:19:41;;;;;;;;;;;11.00;91.40;;;;;;4992188;28;20375;-68
2023/01/21 03:22:13;;;;;;;;;;;11.20;91.50;;;;;;4967539;28;20509;-68
2023/01/21 03:24:39;;;;;;;;;;;11.10;91.40;;;;;;4973196;28;20376;-68
2023/01/21 03:27:05;;;;;;;;;;;11.00;91.40;;;;;;4973788;28;19922;-68
2023/01/21 03:29:31;;;;;;;;;;;11.20;91.40;;;;;;4961959;28;19945;-69
2023/01/21 03:31:57;;;;;;;;;;;11.10;91.40;;;;;;4991713;28;20512;-68
2023/01/21 03:34:23;;;;;;;;;;;11.10;91.40;;;;;;4975101;28;19961;-68
2023/01/21 03:37:07;;;;;;;;;;;11.00;91.40;;;;;;4993255;28;20269;-68
2023/01/21 03:39:33;;;;;;;;;;;;;;;;;;4974259;28;19921;-66
2023/01/21 03:41:59;;;;;;;;;;;11.30;91.40;;;;;;4955767;28;20064;-69
2023/01/21 03:44:25;;;;;;;;;;;11.00;91.30;;;;;;4957103;28;19922;-70
2023/01/21 03:47:09;;;;;;;;;;;11.30;91.40;;;;;;4956965;28;20087;-70
2023/01/21 03:49:35;;;;;;;;;;;;;;;;;;5010263;28;19921;-70
2023/01/21 03:52:01;;;;;;;;;;;11.40;91.50;;;;;;5014918;28;19921;-70
2023/01/21 03:54:26;;;;;;;;;;;11.10;91.40;;;;;;5013171;28;19921;-70
2023/01/21 03:56:52;;;;;;;;;;;11.20;91.40;;;;;;5014868;28;20376;-70
2023/01/21 03:59:17;;;;;;;;;;;11.20;91.40;;;;;;5013769;28;19968;-71
2023/01/21 04:01:43;;;;;;;;;;;10.80;91.30;;;;;;5007713;28;19925;-70
2023/01/21 04:04:09;;;;;;;;;;;11.10;91.40;;;;;;5010420;28;19928;-70
2023/01/21 04:06:35;;;;;;;;;;;11.10;91.40;;;;;;5013977;28;20020;-70
2023/01/21 04:09:02;;;;;;;;;;;11.30;91.40;;;;;;5013021;28;19921;-71
2023/01/21 04:11:27;;;;;;;;;;;11.10;91.40;;;;;;5010203;28;19925;-71
2023/01/21 04:13:53;;;;;;;;;;;11.20;91.40;;;;;;5012788;28;19925;-71
2023/01/21 04:16:19;;;;;;;;;;;11.20;91.40;;;;;;5013122;28;19922;-71
2023/01/21 04:18:46;;;;;;;;;;;11.20;91.40;;;;;;5012899;28;19922;-69
2023/01/21 04:21:12;;;;;;;;;;;;;;;;;;5012331;28;19921;-70
2023/01/21 04:23:38;;;;;;;;;;;11.00;91.30;;;;;;5013557;28;20384;-71
2023/01/21 04:26:03;;;;;;;;;;;11.20;91.40;;;;;;4994977;28;19995;-71
2023/01/21 04:28:29;;;;;;;;;;;11.30;91.50;;;;;;4996841;28;19921;-70
2023/01/21 04:30:57;;;;;;;;;;;11.10;91.30;;;;;;5008009;28;19921;-69
2023/01/21 04:33:23;;;;;;;;;;;10.90;91.30;;;;;;5014133;28;19975;-71
2023/01/21 04:35:48;;;;;;;;;;;11.00;91.40;;;;;;5011616;28;19971;-70
2023/01/21 04:38:14;;;;;;;;;;;11.20;91.40;;;;;;5012746;28;20384;-70
2023/01/21 04:40:40;;;;;;;;;;;11.30;91.00;;;;;;5011912;28;19922;-70
2023/01/21 04:43:06;;;;;;;;;;;11.10;91.40;;;;;;5043250;28;19924;-71
2023/01/21 04:45:32;;;;;;;;;;;;;;;;;;5052341;28;19928;-71
2023/01/21 04:47:57;;;;;;;;;;;11.10;91.30;;;;;;5051790;28;20058;-70
2023/01/21 04:50:23;;;;;;;;;;;11.30;91.30;;;;;;5048569;28;20004;-71
2023/01/21 04:52:49;;;;;;;;;;;11.30;91.40;;;;;;5039254;28;19920;-71
2023/01/21 04:55:14;;;;;;;;;;;11.20;91.40;;;;;;5051834;28;20128;-68
2023/01/21 04:57:42;;;;;;;;;;;11.40;91.40;;;;;;5047227;28;20012;-69
2023/01/21 05:00:09;;;;;;;;;;;10.90;91.30;;;;;;5041743;28;19933;-71
2023/01/21 05:02:34;;;;;;;;;;;11.10;91.40;;;;;;5046357;28;20032;-71
2023/01/21 05:05:00;;;;;;;;;;;;;;;;;;5037756;28;20019;-71
2023/01/21 05:07:26;;;;;;;;;;;11.30;91.40;;;;;;5036198;28;20012;-68
2023/01/21 05:09:52;;;;;;;;;;;11.30;91.40;;;;;;5032114;28;20365;-68
2023/01/21 05:12:20;;;;;;;;;;;;;;;;;;5037393;28;19943;-71
2023/01/21 05:14:46;;;;;;;;;;;10.90;91.30;;;;;;5056344;28;19916;-71
2023/01/21 05:17:12;;;;;;;;;;;11.40;91.50;;;;;;5057091;28;20004;-69
2023/01/21 05:19:37;;;;;;;;;;;11.00;91.40;;;;;;5039041;28;19925;-67
2023/01/21 05:22:03;;;;;;;;;;;;;;;;;;5048172;28;20367;-70
2023/01/21 05:24:29;;;;;;;;;;;11.00;91.30;;;;;;5057404;28;19921;-69
2023/01/21 05:26:55;;;;;;;;;;;11.10;91.30;;;;;;5034994;28;19974;-70
2023/01/21 05:29:21;;;;;;;;;;;11.20;91.40;;;;;;5039041;28;19928;-71
2023/01/21 05:31:46;;;;;;;;;;;11.20;91.30;;;;;;5036001;28;19925;-71
2023/01/21 05:34:12;;;;;;;;;;;11.10;91.30;;;;;;5055728;28;20332;-71
2023/01/21 05:36:38;;;;;;;;;;;11.00;91.30;;;;;;5056854;28;19920;-71
2023/01/21 05:39:03;;;;;;;;;;;10.90;91.30;;;;;;5053940;28;19921;-68
2023/01/21 05:41:29;;;;;;;;;;;11.00;91.40;;;;;;5055390;28;19975;-71
2023/01/21 05:43:55;;;;;;;;;;;11.00;91.40;;;;;;5051777;28;19921;-71
2023/01/21 05:46:21;;;;;;;;;;;11.10;91.40;;;;;;5054155;28;19962;-69
2023/01/21 05:48:46;;;;;;;;;;;11.10;91.40;;;;;;5019500;28;19969;-69
2023/01/21 05:51:12;;;;;;;;;;;11.20;91.50;;;;;;5051673;28;19928;-68
2023/01/21 05:53:40;;;;;;;;;;;11.00;91.40;;;;;;5025055;28;20355;-71
2023/01/21 05:56:06;;;;;;;;;;;11.10;91.50;;;;;;5045175;28;19920;-71
2023/01/21 05:58:32;;;;;;;;;;;11.20;91.50;;;;;;5056526;28;19921;-70
2023/01/21 06:00:58;;;;;;;;;;;;;;;;;;5053813;28;19921;-71
2023/01/21 06:03:24;;;;;;;;;;;;;;;;;;5049967;28;20290;-71
2023/01/21 06:05:49;;;;;;;;;;;11.30;91.60;;;;;;5056328;28;19921;-69
2023/01/21 06:08:17;;;;;;;;;;;11.20;91.50;;;;;;5058027;28;20341;-69
2023/01/21 06:10:43;;;;;;;;;;;11.30;91.50;;;;;;5036153;28;19933;-68
2023/01/21 06:13:12;;;;;;;;;;;11.10;91.50;;;;;;5049258;28;19921;-69
2023/01/21 06:15:41;;;;;;;;;;;11.20;91.50;;;;;;5038228;28;19931;-69
2023/01/21 06:18:06;;;;;;;;;;;11.10;91.50;;;;;;5037093;28;19927;-68
2023/01/21 06:20:32;;;;;;;;;;;11.10;91.50;;;;;;5036021;28;19920;-70
2023/01/21 06:22:58;;;;;;;;;;;11.30;91.60;;;;;;5049964;28;19999;-70
2023/01/21 06:25:24;;;;;;;;;;;10.90;91.40;;;;;;5038960;28;19920;-70
2023/01/21 06:27:50;;;;;;;;;;;11.10;91.50;;;;;;5056164;28;19924;-70
2023/01/21 06:30:16;;;;;;;;;;;11.30;91.50;;;;;;5055148;28;20016;-70
2023/01/21 06:32:44;;;;;;;;;;;11.10;91.40;;;;;;5048661;28;20306;-71
2023/01/21 06:35:10;;;;;;;;;;;11.20;91.50;;;;;;5039960;28;19931;-70
2023/01/21 06:37:35;;;;;;;;;;;10.90;91.40;;;;;;5056130;28;19925;-70
2023/01/21 06:40:01;;;;;;;;;;;11.10;91.50;;;;;;5036089;28;19921;-70
2023/01/21 06:42:26;;;;;;;;;;;11.00;91.50;;;;;;5048841;28;20029;-71
2023/01/21 06:44:52;;;;;;;;;;;10.80;91.40;;;;;;5054101;28;19921;-69
2023/01/21 06:47:18;;;;;;;;;;;11.00;91.50;;;;;;5051708;28;19928;-70
2023/01/21 06:49:43;;;;;;;;;;;10.90;91.50;;;;;;5052948;28;19925;-70
2023/01/21 06:52:09;;;;;;;;;;;11.20;91.60;;;;;;5055277;28;20307;-71
2023/01/21 06:54:35;;;;;;;;;;;11.00;91.50;;;;;;5039869;28;19944;-69
2023/01/21 06:57:03;;;;;;;;;;;;;;;;;;5019097;28;19928;-62
2023/01/21 06:59:29;;;;;;;;;;;11.20;91.60;;;;;;5050876;28;19962;-68
2023/01/21 07:01:57;;;;;;;;;;;;;;;;;;5037776;28;19924;-66
2023/01/21 07:04:24;;;;;;;;;;;11.10;91.30;;;;;;5045458;28;19963;-60
2023/01/21 07:06:50;;;;;;;;;;;11.20;91.50;;;;;;5050011;28;19925;-69
2023/01/21 07:09:16;;;;;;;;;;;11.20;91.50;;;;;;5041247;28;19944;-68
2023/01/21 07:11:42;;;;;;;;;;;11.20;91.60;;;;;;5035472;28;20337;-70
2023/01/21 07:14:08;;;;;;;;;;;11.00;91.40;;;;;;5040941;28;19928;-69
2023/01/21 07:16:34;;;;;;;;;;;11.10;91.60;;;;;;5054570;28;19921;-69
2023/01/21 07:19:00;;;;;;;;;;;;;;;;;;5031366;28;19991;-70
2023/01/21 07:21:26;;;;;;;;;;;;;;;;;;5043179;28;20405;-66
2023/01/21 07:23:52;;;;;;;;;;;11.00;91.60;;;;;;5037323;28;19944;-69
2023/01/21 07:26:21;;;;;;;;;;;11.20;91.60;;;;;;5035195;28;19998;-69
2023/01/21 07:28:47;;;;;;;;;;;;;;;;;;5049949;28;19978;-64
2023/01/21 07:31:13;;;;;;;;;;;10.90;91.40;;;;;;5036831;28;20333;-71
2023/01/21 07:33:39;;;;;;;;;;;10.90;91.40;;;;;;5050045;28;20050;-71
2023/01/21 07:36:05;;;;;;;;;;;11.10;91.50;;;;;;5054968;28;20374;-71
2023/01/21 07:38:30;;;;;;;;;;;10.80;91.50;;;;;;5053944;28;19921;-68
2023/01/21 07:40:59;;;;;;;;;;;10.90;91.40;;;;;;5036272;28;20544;-69
2023/01/21 07:43:26;;;;;;;;;;;10.90;91.40;;;;;;5049178;28;19921;-69
2023/01/21 07:45:53;;;;;;;;;;;11.10;91.60;;;;;;5052778;28;20384;-73
2023/01/21 07:48:19;;;;;;;;;;;;;;;;;;5033352;28;20306;-69
2023/01/21 07:50:45;;;;;;;;;;;;;;;;;;5047035;28;20354;-71
2023/01/21 07:53:11;;;;;;;;;;;11.00;91.10;;;;;;5034341;28;19975;-70
2023/01/21 07:55:37;;;;;;;;;;;11.40;91.30;;;;;;5017056;28;19929;-70
2023/01/21 07:58:02;;;;;;;;;;;11.10;91.20;;;;;;5046979;28;19921;-68
2023/01/21 08:00:28;;;;;;;;;;;11.00;91.20;;;;;;5052893;28;19920;-69
2023/01/21 08:02:55;;;;;;;;;;;11.30;91.30;;;;;;5049572;28;19943;-70
2023/01/21 08:05:21;;;;;;;;;;;10.90;91.10;;;;;;5035382;28;20375;-70
2023/01/21 08:07:46;;;;;;;;;;;11.10;91.20;;;;;;5054194;28;19940;-71
2023/01/21 08:10:14;;;;;;;;;;;10.90;91.10;;;;;;5046764;28;19944;-69
2023/01/21 08:12:40;;;;;;;;;;;11.10;91.20;;;;;;5036158;28;19916;-70
2023/01/21 08:15:06;;;;;;;;;;;11.00;91.20;;;;;;5037371;28;19921;-71
2023/01/21 08:17:35;;;;;;;;;;;11.10;91.20;;;;;;5054207;28;19974;-68
2023/01/21 08:20:01;;;;;;;;;;;11.20;91.30;;;;;;5051412;28;19944;-70
2023/01/21 08:22:26;;;;;;;;;;;11.10;91.20;;;;;;5042671;28;19925;-69
2023/01/21 08:24:52;;;;;;;;;;;11.10;91.20;;;;;;5050745;28;19917;-71
2023/01/21 08:27:18;;;;;;;;;;;10.90;91.20;;;;;;5054642;28;19920;-70
2023/01/21 08:29:43;;;;;;;;;;;11.10;91.20;;;;;;5050279;28;19975;-70
2023/01/21 08:32:09;;;;;;;;;;;;;;;;;;5026800;28;19966;-71
2023/01/21 08:34:35;;;;;;;;;;;;;;;;;;5040968;28;20350;-71
2023/01/21 08:37:01;;;;;;;;;;;10.80;91.10;;;;;;5042188;28;19921;-69
2023/01/21 08:39:27;;;;;;;;;;;11.10;91.20;;;;;;5018156;28;19931;-68
2023/01/21 08:41:53;;;;;;;;;;;11.10;91.20;;;;;;5050859;28;20329;-70
2023/01/21 08:44:18;;;;;;;;;;;11.10;91.20;;;;;;5053271;28;19920;-69
2023/01/21 08:46:54;;;;;;;;;;;;;;;;;;;;;
2023/01/21 08:49:21;;;;;;;;;;;11.20;91.30;;;;;;5012701;28;19972;-68
2023/01/21 08:51:47;;;;;;;;;;;11.20;91.30;;;;;;5036432;28;19936;-69
2023/01/21 08:54:13;;;;;;;;;;;11.10;91.30;;;;;;5042728;28;19927;-68
2023/01/21 08:56:41;;;;;;;;;;;;;;;;;;5035517;28;20366;-67
2023/01/21 08:59:07;;;;;;;;;;;11.20;91.30;;;;;;5016056;28;20294;-69
2023/01/21 09:01:35;;;;;;;;;;;11.10;91.20;;;;;;5040201;28;20015;-69
2023/01/21 09:04:03;;;;;;;;;;;11.10;91.20;;;;;;5029150;28;20412;-68
2023/01/21 09:06:28;;;;;;;;;;;11.30;91.20;;;;;;5015665;28;19964;-67
2023/01/21 09:08:56;;;;;;;;;;;11.10;91.20;;;;;;5035107;28;19990;-68
2023/01/21 09:11:22;;;;;;;;;;;11.30;91.30;;;;;;5034672;28;20003;-69
2023/01/21 09:13:48;;;;;;;;;;;11.00;91.20;;;;;;5053271;28;19956;-70
2023/01/21 09:16:15;;;;;;;;;;;11.30;91.30;;;;;;5054250;28;19921;-69
2023/01/21 09:18:40;;;;;;;;;;;11.10;91.20;;;;;;5052959;28;19973;-70
2023/01/21 09:21:06;;;;;;;;;;;11.20;91.30;;;;;;5034905;28;20410;-69
2023/01/21 09:23:33;;;;;;;;;;;11.00;91.20;;;;;;5032128;28;19921;-70
2023/01/21 09:25:59;;;;;;;;;;;;;;;;;;5033284;28;20413;-71
2023/01/21 09:28:25;;;;;;;;;;;11.20;91.20;;;;;;5033188;28;19921;-70
2023/01/21 09:30:54;;;;;;;;;;;11.20;91.20;;;;;;5033556;28;19927;-70
2023/01/21 09:33:20;;;;;;;;;;;11.30;91.20;;;;;;5039839;28;19921;-70
2023/01/21 09:35:51;;;;;;;;;;;11.20;91.20;;;;;;5033506;28;19927;-69
2023/01/21 09:38:16;;;;;;;;;;;11.40;91.30;;;;;;5053322;28;19971;-69
2023/01/21 09:40:45;;;;;;;;;;;11.40;91.30;;;;;;5053098;28;20019;-67
2023/01/21 09:43:12;;;;;;;;;;;11.10;91.20;;;;;;5029526;28;19921;-70
2023/01/21 09:45:38;;;;;;;;;;;11.40;91.20;;;;;;5033428;28;19967;-69
2023/01/21 09:48:06;;;;;;;;;;;11.30;91.20;;;;;;5032737;28;19925;-68
2023/01/21 09:50:34;;;;;;;;;;;11.20;91.20;;;;;;5032910;28;20016;-69
2023/01/21 09:53:02;;;;;;;;;;;11.20;91.20;;;;;;5029579;28;19975;-68
2023/01/21 09:55:36;;;;;;;;;;;11.00;91.10;;;;;;5030814;28;19967;-68
2023/01/21 09:58:02;;;;;;;;;;;11.50;91.20;;;;;;5016943;28;19922;-70
2023/01/21 10:00:43;;;;;;;;;;;11.20;91.20;;;;;;5017087;28;20326;-70
2023/01/21 10:03:15;;;;;;;;;;;11.60;91.30;;;;;;5017083;28;19922;-70
2023/01/21 10:05:50;;;;;;;;;;;11.40;91.20;;;;;;5025807;28;19920;-70
2023/01/21 10:08:34;;;;;;;;;;;11.40;91.20;;;;;;5036028;28;19921;-70
2023/01/21 10:11:06;;;;;;;;;;;11.30;91.20;;;;;;5036436;28;19921;-69
2023/01/21 10:13:39;;;;;;;;;;;11.30;91.20;;;;;;5028230;28;19964;-70
2023/01/21 10:16:05;;;;;;;;;;;11.50;91.30;;;;;;5035530;28;19921;-69
2023/01/21 10:18:34;;;;;;;;;;;11.50;91.20;;;;;;5026126;28;20347;-69
2023/01/21 10:21:09;;;;;;;;;;;11.40;91.30;;;;;;5034998;28;20337;-70
2023/01/21 10:23:37;;;;;;;;;;;11.60;91.30;;;;;;5035051;28;19921;-70
2023/01/21 10:26:05;;;;;;;;;;;11.60;91.30;;;;;;5025906;28;19929;-71
2023/01/21 10:28:30;;;;;;;;;;;11.30;91.20;;;;;;5021430;28;19928;-71
2023/01/21 10:31:02;;;;;;;;;;;11.60;91.30;;;;;;5034441;28;20384;-71
2023/01/21 10:33:29;;;;;;;;;;;11.20;91.20;;;;;;5018571;28;19921;-70
2023/01/21 10:36:03;;;;;;;;;;;11.40;91.20;;;;;;5031468;28;19921;-70
2023/01/21 10:38:31;;;;;;;;;;;11.40;91.20;;;;;;5015085;28;19922;-70
2023/01/21 10:41:01;;;;;;;;;;;11.80;91.20;;;;;;5030363;28;19921;-69
2023/01/21 10:43:32;;;;;;;;;;;11.70;91.30;;;;;;5034399;28;19950;-69
2023/01/21 10:45:59;;;;;;;;;;;;;;;;;;5035687;28;20363;-70
2023/01/21 10:48:25;;;;;;;;;;;;;;;;;;5033951;28;19925;-70
2023/01/21 10:50:58;;;;;;;;;;;11.30;91.10;;;;;;5031904;28;19921;-71
2023/01/21 10:53:42;;;;;;;;;;;11.70;91.30;;;;;;5017270;28;19925;-70
2023/01/21 10:56:12;;;;;;;;;;;11.60;91.20;;;;;;5022425;28;19921;-70
2023/01/21 10:58:38;;;;;;;;;;;11.60;91.20;;;;;;5035551;28;19928;-69
2023/01/21 11:01:05;;;;;;;;;;;11.80;91.30;;;;;;5035414;28;19921;-69
2023/01/21 11:03:34;;;;;;;;;;;11.80;91.20;;;;;;5034559;28;19928;-70
2023/01/21 11:06:03;;;;;;;;;;;11.60;91.20;;;;;;5033242;28;20378;-70
2023/01/21 11:08:29;;;;;;;;;;;;;;;;;;5034568;28;20070;-70
2023/01/21 11:10:54;;;;;;;;;;;11.60;91.10;;;;;;5031559;28;19921;-70
2023/01/21 11:13:20;;;;;;;;;;;11.80;91.20;;;;;;5003287;28;20394;-72
2023/01/21 11:15:51;;;;;;;;;;;11.80;91.30;;;;;;5035103;28;20413;-72
2023/01/21 11:18:34;;;;;;;;;;;11.90;91.20;;;;;;5035236;28;20008;-72
2023/01/21 11:21:04;;;;;;;;;;;11.80;91.10;;;;;;5034261;28;19920;-68
2023/01/21 11:23:31;;;;;;;;;;;11.70;91.10;;;;;;5049068;28;20012;-71
2023/01/21 11:26:02;;;;;;;;;;;11.80;91.10;;;;;;5020916;28;20031;-70
2023/01/21 11:28:31;;;;;;;;;;;;;;;;;;5033751;28;20015;-70
2023/01/21 11:31:00;;;;;;;;;;;;;;;;;;5033676;28;19925;-67
2023/01/21 11:33:29;;;;;;;;;;;12.00;91.20;;;;;;5034787;28;19932;-69
2023/01/21 11:35:58;;;;;;;;;;;;;;;;;;5031393;28;19933;-66
2023/01/21 11:38:24;;;;;;;;;;;12.30;91.20;;;;;;5013473;28;20019;-70
2023/01/21 11:41:03;;;;;;;;;;;12.00;91.10;;;;;;5002527;28;19921;-69
2023/01/21 11:43:39;;;;;;;;;;;11.90;91.10;;;;;;5016759;28;20442;-70
2023/01/21 11:46:05;;;;;;;;;;;;;;;;;;5033373;28;19928;-67
2023/01/21 11:48:30;;;;;;;;;;;12.10;91.00;;;;;;5033885;28;19921;-70
2023/01/21 11:51:06;;;;;;;;;;;12.00;91.00;;;;;;5033275;28;19939;-71
2023/01/21 11:53:31;;;;;;;;;;;12.20;91.10;;;;;;5025033;28;20018;-69
2023/01/21 11:56:00;;;;;;;;;;;12.30;91.10;;;;;;5020995;28;20435;-71
2023/01/21 11:58:30;;;;;;;;;;;12.30;91.00;;;;;;5017050;28;20412;-71
2023/01/21 12:00:56;;;;;;;;;;;12.30;91.00;;;;;;5034982;28;19928;-72
2023/01/21 12:03:44;;;;;;;;;;;12.50;91.00;;;;;;5033515;28;20000;-71
2023/01/21 12:06:16;;;;;;;;;;;12.40;90.90;;;;;;5021011;28;19921;-70
2023/01/21 12:08:42;;;;;;;;;;;;;;;;;;5032289;28;19921;-73
2023/01/21 12:11:09;;;;;;;;;;;12.70;91.00;;;;;;5033543;28;19925;-71
2023/01/21 12:13:43;;;;;;;;;;;12.60;91.00;;;;;;5032136;28;19921;-69
2023/01/21 12:16:31;;;;;;;;;;;12.70;91.00;;;;;;5025639;28;19925;-71
2023/01/21 12:19:03;;;;;;;;;;;12.70;90.90;;;;;;5027689;28;19921;-71
2023/01/21 12:21:48;;;;;;;;;;;12.50;90.90;;;;;;5027665;28;19975;-70
2023/01/21 12:24:29;;;;;;;;;;;12.60;90.90;;;;;;5018413;28;20432;-71
2023/01/21 12:27:00;;;;;;;;;;;12.70;90.80;;;;;;5031485;28;19921;-71
2023/01/21 12:29:44;;;;;;;;;;;12.40;90.70;;;;;;5013328;28;19921;-71
2023/01/21 12:32:10;;;;;;;;;;;;;;;;;;5013145;28;19929;-72
2023/01/21 12:34:44;;;;;;;;;;;12.90;90.80;;;;;;5013722;28;19925;-71
2023/01/21 12:37:15;;;;;;;;;;;12.70;90.70;;;;;;5029495;28;20333;-70
2023/01/21 12:39:45;;;;;;;;;;;12.80;90.70;;;;;;5033380;28;19991;-68
2023/01/21 12:42:21;;;;;;;;;;;12.80;90.70;;;;;;5019173;28;20330;-69
2023/01/21 12:44:48;;;;;;;;;;;12.70;90.70;;;;;;5028932;28;19971;-68
2023/01/21 12:47:26;;;;;;;;;;;12.90;90.70;;;;;;5033623;28;20008;-69
2023/01/21 12:49:51;;;;;;;;;;;12.80;90.70;;;;;;5049135;28;19921;-72
2023/01/21 12:52:21;;;;;;;;;;;12.80;90.70;;;;;;5032881;28;20046;-72
2023/01/21 12:55:01;;;;;;;;;;;12.70;90.60;;;;;;5029513;28;19921;-71
2023/01/21 12:57:32;;;;;;;;;;;12.70;90.50;;;;;;5025878;28;19940;-72
2023/01/21 13:00:01;;;;;;;;;;;12.70;90.60;;;;;;5015141;28;20394;-72
2023/01/21 13:02:34;;;;;;;;;;;12.70;90.70;;;;;;5032744;28;19928;-72
2023/01/21 13:05:01;;;;;;;;;;;12.50;90.70;;;;;;5031265;28;20309;-70
2023/01/21 13:07:42;;;;;;;;;;;12.60;90.80;;;;;;5049050;28;20271;-71
2023/01/21 13:10:11;;;;;;;;;;;12.90;90.90;;;;;;5032101;28;19967;-72
2023/01/21 13:12:37;;;;;;;;;;;12.90;90.90;;;;;;5032310;28;20351;-71
2023/01/21 13:15:08;;;;;;;;;;;12.50;90.80;;;;;;5031630;28;20003;-71
2023/01/21 13:17:34;;;;;;;;;;;12.70;90.90;;;;;;5032135;28;19928;-72
2023/01/21 13:20:01;;;;;;;;;;;12.70;90.80;;;;;;5033156;28;19921;-72
2023/01/21 13:22:33;;;;;;;;;;;12.60;90.80;;;;;;5033384;28;19932;-71
2023/01/21 13:25:00;;;;;;;;;;;12.60;90.80;;;;;;5031343;28;20016;-71
2023/01/21 13:27:38;;;;;;;;;;;12.50;90.90;;;;;;5033169;28;19925;-72
2023/01/21 13:30:13;;;;;;;;;;;12.60;90.90;;;;;;5033469;28;19921;-72
2023/01/21 13:32:41;;;;;;;;;;;12.50;90.90;;;;;;5037511;28;19979;-72
2023/01/21 13:35:14;;;;;;;;;;;12.80;91.00;;;;;;5036282;28;19925;-71
2023/01/21 13:37:43;;;;;;;;;;;12.70;91.00;;;;;;5037299;28;19921;-69
2023/01/21 13:40:09;;;;;;;;;;;;;;;;;;5019647;28;19928;-73
2023/01/21 13:42:37;;;;;;;;;;;12.40;91.00;;;;;;5027317;28;20378;-72
2023/01/21 13:45:04;;;;;;;;;;;;;;;;;;5037160;28;20007;-73
2023/01/21 13:47:38;;;;;;;;;;;12.40;91.00;;;;;;5052339;28;19921;-71
2023/01/21 13:50:14;;;;;;;;;;;12.60;91.00;;;;;;5057010;28;20337;-72
2023/01/21 13:52:46;;;;;;;;;;;12.50;91.10;;;;;;5037728;28;19920;-72
2023/01/21 13:55:17;;;;;;;;;;;12.60;91.10;;;;;;5048387;28;19920;-70
2023/01/21 13:58:01;;;;;;;;;;;12.60;91.20;;;;;;5054253;28;19928;-71
2023/01/21 14:00:43;;;;;;;;;;;12.40;91.10;;;;;;5056716;28;19964;-71
2023/01/21 14:03:27;;;;;;;;;;;12.40;91.10;;;;;;5055679;28;19924;-71
2023/01/21 14:05:53;;;;;;;;;;;12.30;91.10;;;;;;5055771;28;19920;-72
2023/01/21 14:08:27;;;;;;;;;;;12.40;91.20;;;;;;5038712;28;20386;-71
2023/01/21 14:10:52;;;;;;;;;;;12.30;91.20;;;;;;5036630;28;19921;-72
2023/01/21 14:13:33;;;;;;;;;;;12.40;91.20;;;;;;5043985;28;19917;-72
2023/01/21 14:16:02;;;;;;;;;;;12.40;91.30;;;;;;5036976;28;20046;-71
2023/01/21 14:18:28;;;;;;;;;;;;;;;;;;5049960;28;19917;-71
2023/01/21 14:21:14;;;;;;;;;;;12.50;91.30;;;;;;5038002;28;19920;-71
2023/01/21 14:23:40;;;;;;;;;;;;;;;;;;5047093;28;19924;-71
2023/01/21 14:26:11;;;;;;;;;;;12.50;91.30;;;;;;5055409;28;19927;-71
2023/01/21 14:28:41;;;;;;;;;;;12.40;91.30;;;;;;5029231;28;19928;-71
2023/01/21 14:31:18;;;;;;;;;;;12.40;91.30;;;;;;5056385;28;19921;-71
2023/01/21 14:33:44;;;;;;;;;;;;;;;;;;5017793;28;19917;-72
2023/01/21 14:36:32;;;;;;;;;;;12.30;91.30;;;;;;5036813;28;19921;-71
2023/01/21 14:39:00;;;;;;;;;;;12.40;91.30;;;;;;5047610;28;19921;-70
2023/01/21 14:41:45;;;;;;;;;;;12.40;91.30;;;;;;5035293;28;19921;-70
2023/01/21 14:44:31;;;;;;;;;;;12.00;91.30;;;;;;5046375;28;19921;-71
2023/01/21 14:47:13;;;;;;;;;;;12.30;91.30;;;;;;5051816;28;20007;-69
2023/01/21 14:49:43;;;;;;;;;;;12.20;91.30;;;;;;5037741;28;19967;-71
2023/01/21 14:52:38;;;;;;;;;;;12.40;91.40;;;;;;5028210;28;19974;-71